Time;durP1;ratioP1;P1;durP2;ratioP2;P2;SDS_P1;SDS_P2;PMS_P1;PMS_P2;Temp;Humidity;BMP_temperature;BMP_pressure;BME280_temperature;BME280_humidity;BME280_pressure;Samples;Min_cycle;Max_cycle;Signal;HPM_P1;HPM_P2
2022/10/31 00:00:30;;;;;;;5.70;4.57;;;15.60;58.60;;;14.45;59.17;101478.16;12275267;19;20039;-88
2022/10/31 00:04:32;;;;;;;7.47;4.88;;;15.40;58.50;;;14.42;59.08;101483.63;12276828;19;20018;-88
2022/10/31 00:08:34;;;;;;;6.20;4.82;;;15.40;58.40;;;14.42;59.16;101490.63;12270496;19;20010;-88
2022/10/31 00:12:35;;;;;;;5.88;4.68;;;15.30;58.40;;;14.50;59.11;101506.78;12275801;19;20002;-88
2022/10/31 00:16:37;;;;;;;6.50;4.90;;;15.50;58.60;;;14.45;59.23;101509.72;12274044;19;20409;-88
2022/10/31 00:20:39;;;;;;;7.35;5.22;;;15.40;58.60;;;14.42;59.29;101501.13;12273630;19;20371;-88
2022/10/31 00:24:41;;;;;;;6.00;4.57;;;15.20;58.60;;;14.41;59.28;101502.09;12273172;19;20042;-88
2022/10/31 00:28:43;;;;;;;8.73;5.32;;;15.20;58.50;;;14.22;59.18;101481.31;12269459;19;20074;-89
2022/10/31 00:32:45;;;;;;;7.18;4.53;;;15.20;58.50;;;14.25;59.26;101497.72;12271869;19;20028;-88
2022/10/31 00:36:47;;;;;;;5.50;4.63;;;15.10;58.40;;;14.19;59.24;101500.72;12269635;19;20007;-88
2022/10/31 00:40:49;;;;;;;8.80;5.05;;;15.10;58.50;;;14.26;59.29;101514.34;12271811;19;20038;-88
2022/10/31 00:44:51;;;;;;;5.40;4.45;;;15.00;58.50;;;13.98;59.30;101489.66;12272617;19;20037;-88
2022/10/31 00:48:52;;;;;;;8.00;5.07;;;15.00;58.60;;;14.04;59.23;101493.72;12268265;19;20015;-88
2022/10/31 00:52:54;;;;;;;7.75;5.78;;;15.00;58.60;;;13.73;59.37;101454.28;12272296;19;20023;-88
2022/10/31 00:56:57;;;;;;;9.50;5.13;;;15.00;58.60;;;14.12;59.37;101523.00;12270490;19;20019;-88
2022/10/31 01:00:59;;;;;;;6.75;4.68;;;14.90;58.50;;;14.11;59.22;101530.03;12266788;19;20014;-89
2022/10/31 01:05:01;;;;;;;6.63;4.50;;;14.90;58.40;;;13.49;59.22;101435.53;12270188;19;20025;-88
2022/10/31 01:09:03;;;;;;;7.68;4.43;;;14.80;58.40;;;13.89;59.25;101517.28;12271509;19;20007;-88
2022/10/31 01:13:05;;;;;;;4.90;4.18;;;14.80;58.30;;;13.92;59.23;101526.78;12269858;19;20015;-88
2022/10/31 01:17:06;;;;;;;5.53;5.00;;;14.80;58.30;;;13.81;59.36;101516.03;12268901;19;20028;-88
2022/10/31 01:21:18;;;;;;;5.03;4.47;;;14.70;58.40;;;13.75;59.37;101513.75;12271019;19;20006;-88
2022/10/31 01:25:23;;;;;;;6.82;4.75;;;14.70;58.50;;;13.82;59.34;101530.84;12270992;19;20022;-88
2022/10/31 01:29:25;;;;;;;7.05;4.47;;;14.70;58.90;;;13.81;59.37;101534.41;12271929;19;20006;-88
2022/10/31 01:33:27;;;;;;;4.55;4.15;;;14.60;58.60;;;13.75;59.48;101532.97;12269871;19;20018;-88
2022/10/31 01:37:30;;;;;;;6.18;4.93;;;14.60;58.70;;;13.65;59.48;101522.13;12266564;19;20011;-88
2022/10/31 01:41:36;;;;;;;5.47;4.30;;;14.60;58.70;;;13.73;59.40;101533.03;12267549;19;20010;-87
2022/10/31 01:45:41;;;;;;;5.85;4.88;;;14.60;58.60;;;13.67;59.42;101530.78;12268143;19;20021;-88
2022/10/31 01:49:48;;;;;;;4.10;3.70;;;14.50;58.40;;;13.33;59.33;101475.81;12268932;19;20011;-88
2022/10/31 01:53:54;;;;;;;4.95;4.30;;;14.60;58.40;;;13.58;59.29;101523.38;12268953;19;20461;-88
2022/10/31 01:58:11;;;;;;;5.82;4.80;;;14.50;58.40;;;13.53;59.35;101524.56;12261851;19;20021;-88
2022/10/31 02:02:17;;;;;;;6.60;4.22;;;14.40;58.40;;;13.47;59.41;101524.00;12267872;19;20097;-87
2022/10/31 02:06:49;;;;;;;5.68;4.25;;;14.40;58.40;;;13.53;59.34;101540.31;12261733;19;20010;-88
2022/10/31 02:10:51;;;;;;;6.53;4.60;;;14.40;58.60;;;13.42;59.41;101512.03;12267441;19;20407;-88
2022/10/31 02:14:53;;;;;;;7.20;4.22;;;14.40;58.50;;;13.43;59.36;101535.59;12265337;19;20021;-87
2022/10/31 02:18:56;;;;;;;5.32;3.85;;;14.40;58.60;;;13.16;59.35;101501.16;12266874;19;20057;-88
2022/10/31 02:23:20;;;;;;;6.00;4.32;;;14.30;58.60;;;13.42;59.41;101551.38;12267167;19;20010;-88
2022/10/31 02:27:40;;;;;;;5.07;4.07;;;14.30;58.50;;;13.38;59.37;101552.50;12262803;19;20484;-88
2022/10/31 02:32:06;;;;;;;6.05;4.35;;;14.20;58.50;;;13.31;59.43;101556.38;12264603;19;20014;-88
2022/10/31 02:36:49;;;;;;;6.03;4.13;;;14.20;58.50;;;13.24;59.59;101545.34;12264297;19;20099;-88
2022/10/31 02:41:04;;;;;;;4.95;4.40;;;14.20;58.50;;;13.18;59.53;101541.28;12264617;19;20088;-88
2022/10/31 02:45:28;;;;;;;5.70;4.20;;;14.20;58.60;;;13.17;59.47;101539.56;12266909;19;20033;-88
2022/10/31 02:49:43;;;;;;;4.57;4.13;;;14.10;58.70;;;13.25;59.47;101560.97;12263797;19;20024;-87
2022/10/31 02:53:45;;;;;;;5.80;3.80;;;14.10;58.60;;;13.20;59.52;101555.13;12266404;19;20014;-88
2022/10/31 02:57:47;;;;;;;6.90;4.32;;;14.10;58.60;;;13.03;59.65;101532.41;12261803;19;20492;-88
2022/10/31 03:02:17;;;;;;;4.13;3.72;;;14.10;58.60;;;13.11;59.68;101546.91;12263347;19;20047;-88
2022/10/31 03:06:41;;;;;;;4.60;3.70;;;14.10;58.60;;;13.18;59.58;101557.00;12263611;19;20074;-88
2022/10/31 03:10:51;;;;;;;10.52;4.30;;;14.10;58.60;;;13.17;59.56;101562.31;12260677;19;20046;-88
2022/10/31 03:15:19;;;;;;;6.35;4.60;;;14.10;59.00;;;13.04;59.64;101560.34;12262247;19;20015;-88
2022/10/31 03:19:38;;;;;;;8.02;3.97;;;14.10;58.60;;;13.00;59.69;101568.44;12264568;19;20341;-88
2022/10/31 03:23:41;;;;;;;4.15;3.65;;;14.00;58.80;;;12.91;59.76;101559.28;12262644;19;20014;-88
2022/10/31 03:27:44;;;;;;;5.32;4.65;;;14.00;58.80;;;12.73;59.63;101540.09;12260447;19;20491;-88
2022/10/31 03:31:57;;;;;;;4.80;3.88;;;13.90;58.80;;;12.95;59.71;101567.84;12262402;19;20488;-87
2022/10/31 03:36:04;;;;;;;8.55;4.07;;;13.90;58.80;;;12.90;59.85;101564.59;12256027;19;20023;-88
2022/10/31 03:40:10;;;;;;;5.90;4.18;;;13.90;58.80;;;12.90;59.80;101564.59;12262404;19;20333;-88
2022/10/31 03:44:17;;;;;;;4.10;3.70;;;13.90;58.80;;;12.95;59.87;101578.31;12263430;19;20014;-88
2022/10/31 03:48:24;;;;;;;6.53;4.30;;;14.20;58.90;;;12.99;59.73;101593.00;12260727;19;20019;-88
2022/10/31 03:52:35;;;;;;;5.27;3.97;;;13.90;58.70;;;13.05;59.86;101608.41;12265595;19;20030;-88
2022/10/31 03:56:53;;;;;;;5.07;3.75;;;14.00;58.70;;;13.01;59.90;101612.94;12259599;19;20038;-88
2022/10/31 04:00:59;;;;;;;5.55;4.18;;;13.90;58.70;;;12.91;59.77;101589.88;12262198;19;20010;-87
2022/10/31 04:05:03;;;;;;;5.88;3.92;;;13.90;58.70;;;12.92;59.99;101604.69;12262177;19;20018;-88
2022/10/31 04:09:09;;;;;;;5.68;3.90;;;13.90;58.70;;;12.92;59.83;101602.91;12262963;19;20017;-88
2022/10/31 04:13:17;;;;;;;5.15;3.55;;;13.90;58.70;;;12.69;59.85;101567.41;12260959;19;20031;-88
2022/10/31 04:17:27;;;;;;;4.50;4.07;;;13.90;58.70;;;12.91;59.79;101614.34;12253899;19;20334;-88
2022/10/31 04:21:31;;;;;;;5.47;3.75;;;13.90;58.70;;;12.88;59.78;101604.03;12258860;19;20046;-88
2022/10/31 04:25:33;;;;;;;4.00;3.60;;;13.90;58.60;;;12.86;59.78;101610.25;12259389;19;20077;-88
2022/10/31 04:29:35;;;;;;;6.70;4.50;;;14.00;58.70;;;12.80;59.95;101612.28;12261957;19;20361;-87
2022/10/31 04:33:37;;;;;;;5.70;3.72;;;13.80;58.70;;;12.58;59.92;101569.69;12262449;19;20023;-88
2022/10/31 04:37:39;;;;;;;6.53;5.13;;;13.80;58.70;;;12.54;59.91;101565.56;12265665;19;20435;-88
2022/10/31 04:41:41;;;;;;;6.32;4.30;;;13.80;58.70;;;12.82;59.87;101620.88;12272462;19;20047;-88
2022/10/31 04:45:48;;;;;;;5.05;3.60;;;13.80;58.80;;;12.84;59.99;101621.66;12270318;19;20047;-87
2022/10/31 04:49:50;;;;;;;4.93;3.72;;;13.80;58.70;;;12.81;59.86;101631.47;12270836;19;20010;-87
2022/10/31 04:53:52;;;;;;;4.88;3.92;;;13.70;58.70;;;12.58;59.88;101593.28;12270458;19;20018;-88
2022/10/31 04:58:03;;;;;;;6.10;3.90;;;13.70;58.70;;;12.77;59.90;101625.53;12269162;19;20472;-88
2022/10/31 05:02:05;;;;;;;5.65;4.30;;;13.90;58.80;;;12.74;59.92;101635.28;12271281;19;20002;-87
2022/10/31 05:06:19;;;;;;;6.70;3.90;;;13.70;58.80;;;12.68;59.94;101625.97;12268591;19;20094;-87
2022/10/31 05:10:28;;;;;;;5.45;4.72;;;13.70;58.80;;;12.56;59.88;101603.00;12270810;19;20017;-88
2022/10/31 05:14:32;;;;;;;3.97;3.60;;;13.70;58.80;;;12.61;60.01;101619.34;12268120;19;20014;-87
2022/10/31 05:18:53;;;;;;;3.67;3.38;;;13.90;58.90;;;12.65;59.95;101628.75;12272229;19;20014;-88
2022/10/31 05:23:10;;;;;;;4.18;3.55;;;13.80;58.90;;;12.57;60.04;101617.78;12267126;19;20035;-88
2022/10/31 05:27:12;;;;;;;4.13;3.75;;;13.60;58.80;;;12.66;59.99;101630.44;12264596;19;20074;-88
2022/10/31 05:31:14;;;;;;;6.38;3.60;;;13.60;58.90;;;12.58;60.15;101627.34;12267728;19;20099;-87
2022/10/31 05:35:30;;;;;;;5.88;3.90;;;13.60;58.90;;;12.59;60.12;101647.41;12266052;19;20010;-88
2022/10/31 05:39:51;;;;;;;4.05;3.65;;;13.60;58.90;;;12.61;60.17;101646.41;12268694;19;20019;-88
2022/10/31 05:43:53;;;;;;;6.80;3.65;;;13.60;58.90;;;12.48;60.01;101633.97;12268439;19;20022;-86
2022/10/31 05:48:02;;;;;;;5.43;4.10;;;13.70;59.00;;;12.58;60.12;101649.19;12263562;19;20093;-87
2022/10/31 05:52:22;;;;;;;7.82;3.90;;;13.50;59.00;;;12.36;60.06;101631.00;12270372;19;20015;-88
2022/10/31 05:56:31;;;;;;;5.82;4.57;;;13.50;59.20;;;12.52;60.18;101656.47;12265666;19;20023;-86
2022/10/31 06:00:34;;;;;;;5.35;4.22;;;13.50;59.20;;;12.54;60.23;101658.09;12267147;19;20480;-88
2022/10/31 06:04:41;;;;;;;6.50;4.20;;;13.50;59.30;;;12.55;60.20;101656.31;12265042;19;20018;-87
2022/10/31 06:08:43;;;;;;;8.35;5.40;;;13.50;59.20;;;12.53;60.29;101655.53;12261816;19;20048;-87
2022/10/31 06:12:51;;;;;;;6.65;4.57;;;13.80;59.40;;;12.56;60.27;101663.28;12263504;19;20014;-88
2022/10/31 06:16:57;;;;;;;4.05;3.65;;;13.60;59.30;;;12.60;60.29;101670.88;12259382;19;20029;-88
2022/10/31 06:21:17;;;;;;;6.63;4.30;;;13.80;59.40;;;12.50;60.47;101653.94;12265587;19;20002;-88
2022/10/31 06:25:19;;;;;;;6.45;3.95;;;13.50;59.30;;;12.58;60.25;101664.91;12255377;19;20032;-86
2022/10/31 06:29:24;;;;;;;7.28;4.45;;;13.60;59.40;;;12.38;60.41;101630.94;12253266;19;20097;-87
2022/10/31 06:33:46;;;;;;;8.25;4.80;;;13.60;59.50;;;12.55;60.34;101672.03;12246221;19;20010;-86
2022/10/31 06:37:55;;;;;;;6.45;4.35;;;13.60;59.60;;;12.59;60.36;101684.09;12239307;19;20019;-87
2022/10/31 06:42:06;;;;;;;7.13;3.88;;;13.60;59.60;;;12.57;60.38;101688.53;12251005;19;20018;-87
2022/10/31 06:46:08;;;;;;;7.32;5.07;;;13.60;59.60;;;12.65;60.50;101699.50;12248271;19;20038;-89
2022/10/31 06:50:17;;;;;;;3.92;3.45;;;13.80;59.70;;;12.58;60.36;101688.47;12250004;19;20049;-88
2022/10/31 06:54:22;;;;;;;4.38;3.97;;;13.70;59.60;;;12.65;60.57;101694.25;12249531;19;20018;-87
2022/10/31 06:58:24;;;;;;;6.38;4.13;;;13.70;59.60;;;12.62;60.45;101694.41;12247387;19;20010;-84
2022/10/31 07:02:28;;;;;;;5.82;4.07;;;13.70;59.60;;;12.62;60.47;101695.25;12251683;19;20344;-88
2022/10/31 07:06:31;;;;;;;5.68;4.05;;;13.70;59.70;;;12.48;60.60;101675.91;12249902;19;20014;-85
2022/10/31 07:10:35;;;;;;;9.80;4.70;;;13.70;59.80;;;12.53;60.57;101676.50;12248677;19;20637;-87
2022/10/31 07:14:39;;;;;;;5.78;5.18;;;13.70;59.90;;;12.62;60.71;101697.03;12249490;19;20017;-87
2022/10/31 07:18:42;;;;;;;6.63;5.38;;;13.80;60.00;;;12.31;60.74;101660.97;12249095;19;20500;-90
2022/10/31 07:22:46;;;;;;;7.38;4.90;;;13.80;60.20;;;12.63;60.65;101698.72;12247730;19;20022;-86
2022/10/31 07:26:48;;;;;;;5.25;4.50;;;13.80;60.30;;;12.79;60.65;101723.25;12244740;19;20014;-87
2022/10/31 07:30:53;;;;;;;7.35;4.78;;;13.80;60.50;;;12.78;60.75;101715.50;12247016;19;20028;-85
2022/10/31 07:34:56;;;;;;;7.38;5.03;;;13.80;60.80;;;12.82;60.67;101725.72;12239042;19;20014;-86
2022/10/31 07:39:04;;;;;;;6.55;5.18;;;13.80;60.90;;;12.88;60.94;101723.72;12246640;19;20015;-87
2022/10/31 07:43:11;;;;;;;7.63;5.13;;;13.90;61.20;;;12.87;60.85;101728.13;12245742;19;20105;-87
2022/10/31 07:47:46;;;;;;;7.57;4.63;;;13.90;61.50;;;12.94;60.99;101739.19;12245507;19;20007;-87
2022/10/31 07:52:06;;;;;;;6.70;4.53;;;14.00;62.20;;;12.90;61.01;101721.91;12248563;19;20018;-87
2022/10/31 07:56:37;;;;;;;7.05;4.57;;;14.00;62.10;;;12.74;61.03;101691.19;12244273;19;20018;-87
2022/10/31 08:00:44;;;;;;;6.25;4.45;;;14.20;62.50;;;12.99;61.28;101721.47;12246177;19;20405;-87
2022/10/31 08:04:49;;;;;;;7.82;4.32;;;14.30;63.30;;;13.19;61.26;101737.03;12247093;19;20019;-87
2022/10/31 08:09:16;;;;;;;8.05;5.10;;;14.40;64.20;;;13.33;61.48;101739.00;12249438;19;20356;-87
2022/10/31 08:13:19;;;;;;;8.35;5.25;;;14.30;65.10;;;13.53;61.70;101740.63;12259103;19;20015;-87
2022/10/31 08:17:25;;;;;;;11.88;6.00;;;14.50;66.50;;;13.72;61.72;101741.38;12254333;19;20010;-87
2022/10/31 08:21:32;;;;;;;6.47;5.47;;;14.70;67.40;;;13.93;61.88;101754.28;12258177;19;20031;-86
2022/10/31 08:25:36;;;;;;;7.57;6.03;;;15.10;68.30;;;14.03;61.93;101733.66;12256241;19;20479;-86
2022/10/31 08:29:38;;;;;;;13.68;6.82;;;15.20;68.40;;;13.99;62.17;101704.09;12257450;19;20476;-87
2022/10/31 08:33:40;;;;;;;10.48;7.10;;;15.30;68.50;;;14.51;62.24;101759.03;12257646;19;20412;-87
2022/10/31 08:38:10;;;;;;;9.73;7.13;;;15.50;68.70;;;14.48;62.26;101730.28;12249171;19;20014;-86
2022/10/31 08:42:13;;;;;;;11.75;6.90;;;15.80;68.40;;;14.79;62.37;101761.00;12254380;19;20336;-87
2022/10/31 08:46:15;;;;;;;9.43;6.90;;;15.90;67.90;;;14.88;62.39;101754.38;12252036;19;20091;-87
2022/10/31 08:50:19;;;;;;;9.30;7.30;;;16.20;67.70;;;15.01;62.36;101759.78;12254758;19;20049;-87
2022/10/31 08:54:22;;;;;;;13.27;7.38;;;16.40;67.50;;;15.18;62.47;101767.56;12254978;19;20021;-85
2022/10/31 08:58:29;;;;;;;10.68;7.18;;;16.30;67.00;;;15.17;62.41;101752.69;12252998;19;20027;-87
2022/10/31 09:02:38;;;;;;;14.93;7.53;;;16.40;67.00;;;15.27;62.61;101750.38;12253976;19;20472;-87
2022/10/31 09:06:40;;;;;;;13.05;7.63;;;16.60;67.00;;;15.41;62.74;101768.84;12250791;19;20018;-87
2022/10/31 09:10:42;;;;;;;9.90;6.78;;;16.60;66.90;;;15.37;62.55;101746.28;12250142;19;20025;-87
2022/10/31 09:14:44;;;;;;;11.35;7.65;;;16.70;67.20;;;15.59;62.83;101761.66;12254269;19;20446;-85
2022/10/31 09:19:00;;;;;;;9.73;7.32;;;16.80;67.30;;;15.82;62.71;101772.59;12247375;19;20015;-86
2022/10/31 09:23:08;;;;;;;10.02;7.57;;;17.00;67.70;;;15.99;62.82;101775.06;12252394;19;20460;-86
2022/10/31 09:27:12;;;;;;;13.15;8.40;;;17.10;67.90;;;16.13;63.04;101772.44;12248924;19;20028;-86
2022/10/31 09:31:19;;;;;;;13.27;8.27;;;17.30;67.90;;;16.27;62.95;101766.28;12252776;19;20015;-86
2022/10/31 09:35:38;;;;;;;13.95;8.80;;;17.50;67.80;;;16.41;62.99;101767.22;12249707;19;20344;-86
2022/10/31 09:39:40;;;;;;;12.43;8.15;;;17.60;67.30;;;16.32;62.87;101739.66;12249487;19;20081;-86
2022/10/31 09:44:24;;;;;;;15.27;10.10;;;17.80;67.00;;;16.69;63.05;101793.53;12250058;19;20026;-86
2022/10/31 09:48:41;;;;;;;13.98;8.70;;;17.90;66.50;;;16.78;63.03;101789.50;12246567;19;20026;-86
2022/10/31 09:53:07;;;;;;;;;;;18.00;65.90;;;16.49;62.64;101741.22;12249567;19;20081;-87
2022/10/31 09:57:18;;;;;;;11.48;6.68;;;18.00;65.00;;;16.67;62.66;101750.59;12244952;19;19918;-87
2022/10/31 10:01:48;;;;;;;14.60;8.43;;;18.10;65.40;;;16.86;62.77;101773.19;12249021;19;20121;-89
2022/10/31 10:06:27;;;;;;;12.57;8.23;;;18.20;65.30;;;16.92;62.83;101770.13;12249127;19;20018;-88
2022/10/31 10:11:33;;;;;;;13.00;8.05;;;18.20;65.50;;;17.11;62.79;101791.72;12250291;19;20039;-88
2022/10/31 10:16:15;;;;;;;12.45;8.40;;;18.30;65.80;;;17.24;62.81;101787.34;12250052;19;20018;-89
2022/10/31 10:20:44;;;;;;;16.73;9.18;;;18.40;66.00;;;17.34;62.81;101792.84;12253328;19;20006;-91
2022/10/31 10:24:51;;;;;;;13.68;9.30;;;18.50;65.50;;;17.43;63.03;101780.81;12249656;19;20353;-87
2022/10/31 10:29:02;;;;;;;16.90;9.40;;;18.60;65.60;;;17.39;62.96;101766.13;12248849;19;20475;-88
2022/10/31 10:33:19;;;;;;;14.95;10.10;;;18.90;65.60;;;17.47;62.85;101766.44;12247623;19;20034;-88
2022/10/31 10:37:42;;;;;;;14.40;8.90;;;18.70;65.50;;;17.54;62.77;101761.63;12248105;19;20010;-87
2022/10/31 10:50:50;;;;;;;14.77;9.73;;;19.00;65.60;;;17.98;63.00;101761.22;12254369;19;20271;-88
2022/10/31 10:55:27;;;;;;;13.45;10.55;;;19.10;65.40;;;18.09;62.82;101763.09;12250898;19;20784;-87
2022/10/31 10:59:30;;;;;;;14.70;9.65;;;19.20;65.20;;;18.01;62.90;101718.72;12250338;19;20035;-90
2022/10/31 11:03:35;;;;;;;16.98;10.73;;;19.40;64.90;;;18.30;63.11;101745.72;12252744;19;20014;-86
2022/10/31 11:07:39;;;;;;;17.30;10.10;;;19.50;64.80;;;18.46;62.97;101756.03;12250087;19;20015;-90
2022/10/31 11:11:41;;;;;;;19.98;10.68;;;19.60;64.40;;;18.54;62.86;101745.75;12250946;19;20422;-88
2022/10/31 11:16:12;;;;;;;17.80;11.57;;;19.70;64.20;;;18.60;62.49;101746.25;12246294;19;20014;-87
2022/10/31 11:20:13;;;;;;;14.30;9.80;;;19.80;63.90;;;18.76;62.51;101757.44;12247937;19;20040;-89
2022/10/31 11:24:22;;;;;;;11.65;8.52;;;19.90;64.10;;;18.58;62.79;101702.25;12248439;19;20015;-88
2022/10/31 11:28:26;;;;;;;18.13;10.70;;;20.00;63.50;;;18.80;62.39;101727.16;12246338;19;20011;-88
2022/10/31 11:32:29;;;;;;;12.15;8.15;;;20.10;63.50;;;18.79;62.54;101714.88;12246996;19;20391;-87
2022/10/31 11:36:35;;;;;;;13.95;9.27;;;20.30;63.70;;;18.76;62.56;101689.47;12242399;19;20040;-87
2022/10/31 11:40:37;;;;;;;14.07;8.90;;;20.40;63.70;;;18.89;62.60;101696.53;12246353;19;20022;-87
2022/10/31 11:44:43;;;;;;;13.02;9.80;;;20.40;63.60;;;19.14;62.70;101721.97;12251170;19;20041;-86
2022/10/31 11:48:50;;;;;;;15.73;9.20;;;20.30;63.30;;;18.87;62.29;101678.09;12256637;19;20014;-89
2022/10/31 11:52:53;;;;;;;14.88;11.05;;;20.50;62.90;;;18.99;62.44;101679.00;12266303;19;20030;-86
2022/10/31 11:56:56;;;;;;;14.27;10.13;;;20.60;62.80;;;19.27;62.09;101713.97;12262652;19;20025;-86
2022/10/31 12:00:58;;;;;;;16.33;10.30;;;20.50;62.40;;;19.01;62.11;101663.84;12259592;19;20018;-86
2022/10/31 12:05:32;;;;;;;20.55;10.73;;;20.70;62.30;;;19.04;62.29;101660.97;12262723;19;20082;-87
2022/10/31 12:09:37;;;;;;;14.35;9.75;;;20.60;62.50;;;19.49;61.92;101713.16;12261586;19;20368;-87
2022/10/31 12:14:19;;;;;;;19.60;11.00;;;20.80;62.40;;;19.21;62.15;101662.31;12261724;19;20019;-87
2022/10/31 12:18:54;;;;;;;15.75;9.57;;;20.80;62.00;;;19.71;61.91;101734.41;12257533;19;20067;-87
2022/10/31 12:23:19;;;;;;;18.63;10.37;;;20.80;61.90;;;19.76;61.92;101737.53;12264160;19;20015;-88
2022/10/31 12:27:59;;;;;;;16.23;9.95;;;20.90;61.70;;;19.82;62.04;101726.47;12257162;19;20292;-88
2022/10/31 12:33:01;;;;;;;15.70;9.25;;;20.90;61.40;;;19.89;62.18;101732.13;12260803;19;20014;-87
2022/10/31 12:37:36;;;;;;;12.65;8.90;;;21.00;61.30;;;19.95;61.88;101722.84;12254801;19;20432;-87
2022/10/31 12:42:04;;;;;;;15.52;9.48;;;21.00;61.20;;;19.91;61.72;101708.16;12260322;19;20014;-88
2022/10/31 12:47:04;;;;;;;13.80;8.63;;;21.20;61.30;;;20.01;62.00;101717.06;12256922;19;20014;-87
2022/10/31 12:51:22;;;;;;;11.30;8.32;;;21.10;61.10;;;20.06;61.49;101706.94;12259680;19;20074;-88
2022/10/31 12:55:39;;;;;;;12.65;8.85;;;21.10;61.10;;;20.07;61.84;101705.97;12258402;19;20027;-88
2022/10/31 13:00:00;;;;;;;14.90;9.77;;;21.20;61.00;;;20.02;61.67;101693.06;12258261;19;20031;-87
2022/10/31 13:04:51;;;;;;;13.40;9.95;;;21.20;61.30;;;20.14;61.64;101704.50;12258960;19;20021;-87
2022/10/31 13:09:00;;;;;;;15.60;8.90;;;21.20;60.80;;;20.15;61.26;101694.75;12247962;19;20011;-89
2022/10/31 13:13:53;;;;;;;16.48;10.35;;;21.20;60.60;;;20.02;61.27;101665.72;12258006;19;20078;-87
2022/10/31 13:17:59;;;;;;;11.40;9.07;;;21.20;60.30;;;19.81;61.59;101626.69;12252745;19;20010;-89
2022/10/31 13:22:08;;;;;;;;;;;21.20;60.00;;;20.20;61.60;101685.47;12258012;19;20044;-89
2022/10/31 13:26:22;;;;;;;12.98;8.35;;;21.30;60.80;;;20.24;61.33;101683.41;12250337;19;19919;-88
2022/10/31 13:30:29;;;;;;;20.13;10.25;;;21.30;60.10;;;19.98;61.34;101635.97;12248354;19;20119;-88
2022/10/31 13:34:39;;;;;;;16.35;10.38;;;21.30;59.60;;;20.31;61.50;101677.47;12249614;19;20089;-88
2022/10/31 13:39:15;;;;;;;18.02;10.30;;;21.30;59.90;;;20.30;61.13;101683.72;12249629;19;20018;-88
2022/10/31 13:43:59;;;;;;;13.32;10.05;;;21.30;59.70;;;20.31;61.38;101668.69;12250424;19;20018;-88
2022/10/31 13:48:13;;;;;;;12.57;9.23;;;21.30;59.80;;;20.33;61.12;101664.94;12249761;19;20028;-88
2022/10/31 13:52:26;;;;;;;16.88;10.05;;;21.30;60.00;;;20.33;61.29;101662.28;12254843;19;20046;-88
2022/10/31 13:56:32;;;;;;;17.17;10.73;;;21.30;59.70;;;20.30;61.37;101649.25;12250546;19;20014;-88
2022/10/31 14:00:36;;;;;;;44.42;14.30;;;21.40;59.80;;;20.33;60.91;101651.69;12253558;19;20490;-88
2022/10/31 14:04:48;;;;;;;43.72;12.82;;;21.40;59.70;;;20.30;61.09;101646.59;12253682;19;20014;-88
2022/10/31 14:08:52;;;;;;;36.35;11.02;;;21.40;60.00;;;20.38;61.12;101653.09;12243871;19;20018;-89
2022/10/31 14:13:13;;;;;;;41.85;11.57;;;21.30;59.80;;;20.34;60.84;101640.09;12254319;19;20015;-88
2022/10/31 14:17:27;;;;;;;53.70;12.60;;;21.50;60.00;;;20.31;60.92;101640.34;12249738;19;20480;-88
2022/10/31 14:21:36;;;;;;;20.27;9.55;;;21.40;59.90;;;20.38;60.69;101655.75;12253914;19;20006;-88
2022/10/31 14:25:38;;;;;;;13.93;7.47;;;21.40;59.90;;;20.27;60.89;101636.22;12250765;19;20007;-89
2022/10/31 14:29:39;;;;;;;11.85;7.80;;;21.40;59.90;;;20.29;60.86;101644.09;12253612;19;20048;-88
2022/10/31 14:33:42;;;;;;;23.15;7.63;;;21.40;60.10;;;20.23;60.93;101629.50;12254167;19;20014;-88
2022/10/31 14:38:26;;;;;;;15.00;7.75;;;21.30;60.10;;;20.21;60.92;101642.03;12250309;19;20026;-88
2022/10/31 14:43:04;;;;;;;13.90;6.10;;;21.30;60.20;;;20.23;60.92;101641.94;12250926;19;20014;-88
2022/10/31 14:47:12;;;;;;;11.80;6.70;;;21.20;60.20;;;20.15;61.00;101621.34;12249149;19;20018;-88
2022/10/31 14:51:21;;;;;;;7.43;5.80;;;21.10;60.10;;;20.11;60.69;101615.41;12237598;19;20397;-87
2022/10/31 14:55:24;;;;;;;11.90;6.35;;;21.10;60.20;;;19.92;60.72;101599.31;12247680;19;20346;-87
2022/10/31 14:59:31;;;;;;;13.57;6.28;;;21.00;60.10;;;20.04;60.78;101622.22;12249849;19;20548;-87
2022/10/31 15:03:45;;;;;;;9.07;6.55;;;21.00;60.20;;;20.01;60.66;101626.91;12248946;19;20011;-88
2022/10/31 15:07:58;;;;;;;7.72;5.80;;;20.90;60.20;;;19.82;60.76;101596.59;12247595;19;20492;-88
2022/10/31 15:12:16;;;;;;;10.65;5.40;;;20.90;60.30;;;19.97;60.81;101621.00;12253045;19;20010;-87
2022/10/31 15:16:33;;;;;;;18.05;7.80;;;20.90;60.20;;;19.51;60.71;101557.56;12246992;19;20015;-87
2022/10/31 15:20:45;;;;;;;18.05;7.70;;;20.80;60.20;;;19.82;60.60;101615.16;12249113;19;20011;-87
2022/10/31 15:24:55;;;;;;;12.98;7.53;;;20.90;60.40;;;19.77;60.46;101609.38;12249472;19;20014;-88
2022/10/31 15:29:06;;;;;;;14.10;8.63;;;20.80;60.20;;;19.77;60.54;101622.63;12247667;19;20002;-87
2022/10/31 15:33:23;;;;;;;13.02;7.82;;;20.70;60.30;;;19.63;60.83;101612.22;12245797;19;20484;-88
2022/10/31 15:37:26;;;;;;;15.80;7.70;;;20.50;60.10;;;19.42;60.57;101577.69;12242558;19;20015;-87
2022/10/31 15:41:48;;;;;;;15.35;7.50;;;20.50;60.10;;;19.33;60.59;101581.06;12247866;19;20010;-87
2022/10/31 15:45:49;;;;;;;11.85;6.43;;;20.40;60.50;;;19.49;60.45;101612.47;12247706;19;20380;-87
2022/10/31 15:49:57;;;;;;;11.20;6.38;;;20.40;59.90;;;19.21;60.63;101589.00;12250089;19;20007;-88
2022/10/31 15:53:59;;;;;;;11.70;6.72;;;20.20;59.80;;;19.36;60.47;101618.75;12248354;19;20098;-87
2022/10/31 15:58:10;;;;;;;8.23;5.95;;;20.20;59.90;;;19.24;60.25;101611.75;12246191;19;20042;-87
2022/10/31 16:02:14;;;;;;;10.48;6.50;;;20.30;60.00;;;19.10;60.57;101610.19;12243456;19;20018;-87
2022/10/31 16:06:20;;;;;;;12.52;7.45;;;20.00;59.80;;;19.11;60.50;101617.16;12241549;19;20037;-87
2022/10/31 16:10:25;;;;;;;7.35;5.55;;;20.10;59.90;;;19.08;60.69;101620.03;12244836;19;20011;-88
2022/10/31 16:14:38;;;;;;;6.88;6.05;;;19.90;60.00;;;19.01;60.71;101614.38;12243484;19;21126;-87
2022/10/31 16:18:41;;;;;;;11.55;7.10;;;20.10;60.30;;;18.95;60.42;101606.06;12247880;19;20018;-88
2022/10/31 16:22:49;;;;;;;9.75;7.15;;;19.90;60.20;;;18.76;60.10;101593.38;12246778;19;20010;-88
2022/10/31 16:26:58;;;;;;;11.20;8.20;;;19.70;60.00;;;18.67;60.57;101591.41;12245791;19;20017;-87
2022/10/31 16:30:59;;;;;;;14.32;8.15;;;19.70;60.00;;;18.57;60.36;101583.31;12254785;19;20362;-87
2022/10/31 16:35:10;;;;;;;8.63;6.70;;;19.60;60.80;;;18.79;60.58;101630.19;12257501;19;20041;-87
2022/10/31 16:39:13;;;;;;;9.00;5.90;;;19.80;60.30;;;18.73;60.57;101627.97;12259534;19;20025;-87
2022/10/31 16:43:19;;;;;;;7.78;5.45;;;19.50;60.00;;;18.65;60.63;101622.41;12259886;19;20010;-87
2022/10/31 16:47:20;;;;;;;;;;;19.60;60.10;;;18.59;60.36;101626.38;12255239;19;20007;-87
2022/10/31 16:51:22;;;;;;;6.15;5.10;;;19.40;60.10;;;18.38;60.51;101590.94;12258716;19;19919;-87
2022/10/31 16:55:23;;;;;;;8.05;6.00;;;19.40;59.90;;;18.43;60.36;101607.31;12254486;19;20014;-87
2022/10/31 16:59:26;;;;;;;7.57;6.28;;;19.30;60.00;;;18.24;60.29;101573.47;12258355;19;20026;-87
2022/10/31 17:03:28;;;;;;;9.05;6.78;;;19.40;60.10;;;18.35;60.32;101595.50;12257098;19;20022;-86
2022/10/31 17:07:29;;;;;;;8.48;6.13;;;19.40;60.00;;;18.18;60.40;101581.84;12253981;19;20101;-87
2022/10/31 17:11:31;;;;;;;11.95;7.57;;;19.10;59.80;;;18.24;60.54;101598.09;12260336;19;20022;-87
2022/10/31 17:15:41;;;;;;;7.78;5.63;;;19.00;59.90;;;18.17;60.41;101598.66;12255893;19;20014;-87